createdAt,value
2022-09-04T00:02:15.886Z,20.10
2022-09-04T00:05:24.497Z,18.42
2022-09-04T00:08:03.077Z,19.42
2022-09-04T00:10:45.991Z,17.30
2022-09-04T00:13:26.216Z,22.70
2022-09-04T00:16:01.110Z,14.20
2022-09-04T00:18:33.722Z,26.23
2022-09-04T00:21:12.340Z,30.40
2022-09-04T00:23:50.498Z,30.92
2022-09-04T00:26:38.515Z,15.13
2022-09-04T00:29:49.907Z,18.42
2022-09-04T00:32:54.912Z,29.92
2022-09-04T00:35:55.284Z,24.20
2022-09-04T00:38:33.542Z,34.05
2022-09-04T00:41:21.670Z,14.85
2022-09-04T00:44:07.543Z,21.88
2022-09-04T00:47:05.213Z,19.98
2022-09-04T00:49:47.606Z,20.50
2022-09-04T00:52:36.915Z,11.55
2022-09-04T00:55:40.645Z,22.58
2022-09-04T00:58:21.532Z,19.75
2022-09-04T01:00:49.440Z,22.58
2022-09-04T01:03:25.016Z,29.52
2022-09-04T01:08:56.085Z,34.28
2022-09-04T01:12:00.998Z,35.40
2022-09-04T01:14:39.312Z,54.45
2022-09-04T01:17:43.399Z,28.58
2022-09-04T01:20:26.578Z,41.35
2022-09-04T01:23:02.144Z,39.28
2022-09-04T01:25:57.848Z,38.05
2022-09-04T01:28:39.677Z,21.50
2022-09-04T01:31:23.223Z,21.67
2022-09-04T01:33:54.888Z,16.23
2022-09-04T01:36:50.169Z,25.52
2022-09-04T01:39:21.064Z,21.58
2022-09-04T01:42:02.163Z,28.85
2022-09-04T01:44:30.098Z,13.07
2022-09-04T01:47:02.789Z,26.90
2022-09-04T01:49:47.988Z,30.80
2022-09-04T01:52:23.605Z,15.23
2022-09-04T01:55:08.141Z,18.48
2022-09-04T01:57:34.582Z,42.53
2022-09-04T02:00:01.011Z,20.70
2022-09-04T02:02:56.843Z,10.63
2022-09-04T02:05:30.025Z,8.23
2022-09-04T02:08:15.164Z,17.73
2022-09-04T02:10:44.818Z,15.50
2022-09-04T02:13:44.922Z,6.45
2022-09-04T02:16:31.149Z,3.80
2022-09-04T02:19:12.196Z,5.10
2022-09-04T02:21:50.848Z,8.45
2022-09-04T02:24:41.815Z,6.93
2022-09-04T02:27:22.013Z,18.80
2022-09-04T02:30:00.637Z,15.07
2022-09-04T02:32:42.651Z,15.75
2022-09-04T02:35:31.032Z,9.82
2022-09-04T02:41:04.039Z,5.75
2022-09-04T02:44:06.374Z,6.30
2022-09-04T02:47:07.689Z,4.53
2022-09-04T02:50:10.083Z,4.60
2022-09-04T02:53:10.369Z,6.35
2022-09-04T02:55:56.391Z,4.90
2022-09-04T02:58:29.194Z,5.13
2022-09-04T03:01:22.423Z,4.70
2022-09-04T03:04:01.348Z,6.85
2022-09-04T03:07:03.661Z,29.17
2022-09-04T03:09:42.098Z,9.02
2022-09-04T03:14:52.550Z,13.68
2022-09-04T03:17:33.537Z,17.45
2022-09-04T03:20:07.750Z,18.92
2022-09-04T03:22:43.849Z,16.58
2022-09-04T03:25:44.588Z,23.52
2022-09-04T03:28:25.178Z,13.52
2022-09-04T03:30:54.378Z,13.30
2022-09-04T03:33:29.646Z,18.98
2022-09-04T03:36:14.220Z,19.50
2022-09-04T03:39:04.470Z,15.48
2022-09-04T03:41:44.327Z,19.17
2022-09-04T03:44:20.777Z,15.43
2022-09-04T03:47:06.190Z,23.65
2022-09-04T03:50:04.883Z,13.00
2022-09-04T03:53:00.943Z,11.68
2022-09-04T03:55:36.539Z,16.17
2022-09-04T03:58:14.398Z,12.48
2022-09-04T04:00:57.943Z,19.35
2022-09-04T04:04:14.571Z,19.52
2022-09-04T04:06:51.330Z,23.83
2022-09-04T04:09:43.874Z,11.18
2022-09-04T04:12:29.932Z,10.65
2022-09-04T04:15:07.196Z,19.63
2022-09-04T04:18:04.339Z,20.63
2022-09-04T04:21:02.131Z,31.63
2022-09-04T04:24:12.458Z,20.30
2022-09-04T04:26:59.439Z,59.25
2022-09-04T04:29:41.221Z,25.15
2022-09-04T04:32:16.680Z,27.45
2022-09-04T04:35:04.552Z,21.63
2022-09-04T04:37:51.804Z,34.05
2022-09-04T04:40:47.890Z,21.27
2022-09-04T04:43:26.521Z,20.83
2022-09-04T04:46:25.504Z,19.45
2022-09-04T04:48:59.106Z,22.35
2022-09-04T04:51:39.320Z,18.00
2022-09-04T04:54:38.166Z,17.92
2022-09-04T04:57:20.886Z,14.95
2022-09-04T05:00:25.299Z,17.02
2022-09-04T05:03:27.182Z,14.73
2022-09-04T05:06:36.391Z,19.65
2022-09-04T05:09:36.522Z,16.10
2022-09-04T05:12:21.252Z,21.02
2022-09-04T05:14:59.823Z,12.88
2022-09-04T05:17:58.058Z,13.90
2022-09-04T05:22:56.896Z,8.20
2022-09-04T05:25:48.279Z,10.95
2022-09-04T05:28:32.841Z,9.13
2022-09-04T05:31:10.200Z,10.18
2022-09-04T05:34:07.429Z,11.50
2022-09-04T05:36:45.943Z,7.55
2022-09-04T05:41:39.121Z,7.40
2022-09-04T05:44:27.447Z,6.60
2022-09-04T05:49:31.339Z,6.78
2022-09-04T05:52:30.831Z,6.32
2022-09-04T05:55:09.636Z,6.13
2022-09-04T05:57:52.594Z,5.45
2022-09-04T06:00:20.326Z,8.25
2022-09-04T06:03:05.088Z,6.63
2022-09-04T06:05:50.971Z,8.52
2022-09-04T06:08:48.563Z,4.47
2022-09-04T06:11:42.900Z,7.15
2022-09-04T06:14:47.135Z,21.73
2022-09-04T06:17:30.691Z,4.20
2022-09-04T06:20:10.431Z,2.90
2022-09-04T06:22:36.868Z,4.30
2022-09-04T06:25:16.565Z,4.15
2022-09-04T06:28:20.498Z,5.85
2022-09-04T06:30:52.278Z,5.15
2022-09-04T06:33:32.644Z,4.65
2022-09-04T06:36:02.263Z,8.85
2022-09-04T06:38:53.327Z,7.10
2022-09-04T06:41:25.801Z,4.78
2022-09-04T06:44:01.380Z,4.13
2022-09-04T06:46:43.030Z,4.60
2022-09-04T06:49:24.171Z,4.13
2022-09-04T06:52:23.474Z,4.10
2022-09-04T06:55:09.917Z,6.90
2022-09-04T06:58:24.721Z,3.80
2022-09-04T07:01:08.843Z,3.90
2022-09-04T07:03:38.418Z,4.25
2022-09-04T07:06:32.643Z,4.40
2022-09-04T07:09:31.345Z,4.07
2022-09-04T07:12:16.429Z,7.07
2022-09-04T07:15:30.176Z,5.90
2022-09-04T07:18:20.303Z,4.25
2022-09-04T07:20:59.531Z,3.40
2022-09-04T07:23:35.940Z,4.15
2022-09-04T07:26:26.878Z,3.92
2022-09-04T07:29:12.320Z,8.40
2022-09-04T07:31:46.626Z,3.53
2022-09-04T07:34:39.375Z,5.43
2022-09-04T07:37:10.969Z,6.60
2022-09-04T07:39:57.077Z,23.75
2022-09-04T07:43:02.600Z,6.70
2022-09-04T07:45:40.053Z,3.45
2022-09-04T07:48:34.252Z,8.20
2022-09-04T07:51:10.853Z,7.68
2022-09-04T07:53:47.717Z,2.70
2022-09-04T07:56:23.346Z,6.38
2022-09-04T07:59:02.851Z,7.13
2022-09-04T08:02:08.824Z,4.78
2022-09-04T08:04:38.228Z,4.68
2022-09-04T08:07:12.263Z,3.15
2022-09-04T08:09:44.738Z,2.30
2022-09-04T08:12:30.262Z,8.57
2022-09-04T08:15:21.954Z,3.63
2022-09-04T08:18:01.523Z,2.83
2022-09-04T08:21:15.786Z,2.45
2022-09-04T08:24:13.101Z,3.92
2022-09-04T08:27:04.627Z,2.58
2022-09-04T08:29:49.808Z,2.67
2022-09-04T08:32:38.223Z,4.50
2022-09-04T08:35:45.029Z,2.70
2022-09-04T08:38:20.586Z,3.17
2022-09-04T08:40:58.830Z,2.70
2022-09-04T08:46:13.525Z,2.33
2022-09-04T08:49:09.397Z,4.32
2022-09-04T08:51:47.473Z,2.70
2022-09-04T08:54:39.229Z,2.35
2022-09-04T08:57:22.538Z,9.55
2022-09-04T09:00:11.225Z,3.15
2022-09-04T09:02:56.078Z,5.10
2022-09-04T09:05:56.720Z,2.58
2022-09-04T09:08:44.422Z,3.75
2022-09-04T09:11:45.105Z,2.80
2022-09-04T09:14:43.850Z,2.30
2022-09-04T09:17:12.420Z,2.35
2022-09-04T09:19:46.383Z,4.20
2022-09-04T09:22:15.870Z,4.18
2022-09-04T09:25:07.278Z,3.15
2022-09-04T09:27:53.302Z,3.88
2022-09-04T09:30:21.613Z,2.25
2022-09-04T09:33:11.444Z,2.47
2022-09-04T09:36:16.146Z,2.30
2022-09-04T09:39:04.128Z,3.17
2022-09-04T09:41:46.418Z,4.05
2022-09-04T09:44:15.589Z,5.47
2022-09-04T09:47:01.706Z,4.32
2022-09-04T09:49:53.612Z,6.45
2022-09-04T09:52:34.963Z,2.53
2022-09-04T09:55:52.700Z,5.38
2022-09-04T10:01:19.642Z,4.68
2022-09-04T10:04:11.657Z,3.08
2022-09-04T10:07:02.576Z,4.57
2022-09-04T10:09:50.803Z,2.97
2022-09-04T10:12:29.432Z,3.28
2022-09-04T10:15:21.679Z,3.20
2022-09-04T10:17:54.224Z,4.15
2022-09-04T10:20:39.223Z,6.50
2022-09-04T10:23:05.679Z,6.32
2022-09-04T10:25:50.513Z,3.30
2022-09-04T10:28:41.500Z,3.60
2022-09-04T10:31:24.028Z,10.02
2022-09-04T10:34:10.549Z,9.02
2022-09-04T10:36:46.235Z,7.50
2022-09-04T10:39:46.824Z,4.18
2022-09-04T10:42:39.649Z,4.38
2022-09-04T10:45:27.233Z,4.10
2022-09-04T10:48:13.266Z,4.70
2022-09-04T10:50:58.704Z,4.03
2022-09-04T10:53:39.001Z,4.43
2022-09-04T10:56:23.074Z,5.78
2022-09-04T10:59:09.789Z,3.75
2022-09-04T11:02:22.314Z,2.97
2022-09-04T11:05:17.554Z,2.80
2022-09-04T11:08:08.072Z,3.28
2022-09-04T11:10:46.071Z,4.85
2022-09-04T11:13:32.494Z,4.28
2022-09-04T11:16:42.313Z,3.00
2022-09-04T11:19:16.212Z,6.40
2022-09-04T11:22:27.432Z,3.38
2022-09-04T11:25:04.291Z,5.00
2022-09-04T11:27:33.917Z,6.80
2022-09-04T11:30:10.120Z,6.18
2022-09-04T11:33:04.995Z,3.15
2022-09-04T11:35:52.713Z,5.47
2022-09-04T11:39:16.490Z,3.63
2022-09-04T11:42:08.387Z,6.97
2022-09-04T11:44:46.220Z,4.35
2022-09-04T11:47:47.563Z,5.32
2022-09-04T11:50:20.348Z,5.38
2022-09-04T11:53:16.621Z,3.65
2022-09-04T11:56:17.016Z,3.25
2022-09-04T11:59:10.272Z,3.47
2022-09-04T12:02:04.532Z,4.10
2022-09-04T12:04:40.764Z,3.20
2022-09-04T12:07:45.877Z,5.45
2022-09-04T12:10:35.865Z,3.80
2022-09-04T12:13:41.118Z,3.65
2022-09-04T12:16:10.415Z,19.42
2022-09-04T12:18:44.821Z,4.47
2022-09-04T12:21:42.441Z,7.60
2022-09-04T12:24:15.059Z,3.33
2022-09-04T12:27:03.227Z,3.50
2022-09-04T12:32:30.961Z,4.35
2022-09-04T12:35:17.168Z,3.47
2022-09-04T12:38:09.705Z,3.97
2022-09-04T12:41:04.739Z,2.67
2022-09-04T12:43:47.177Z,4.18
2022-09-04T12:46:19.646Z,3.25
2022-09-04T12:48:49.192Z,4.55
2022-09-04T12:51:24.708Z,3.08
2022-09-04T12:54:24.890Z,2.78
2022-09-04T12:57:15.983Z,5.68
2022-09-04T12:59:48.226Z,4.75
2022-09-04T13:02:34.214Z,3.33
2022-09-04T13:05:15.146Z,4.97
2022-09-04T13:08:19.495Z,3.95
2022-09-04T13:11:00.132Z,5.97
2022-09-04T13:13:39.590Z,2.80
2022-09-04T13:16:06.049Z,3.35
2022-09-04T13:18:44.382Z,3.72
2022-09-04T13:21:17.236Z,2.85
2022-09-04T13:24:02.615Z,2.92
2022-09-04T13:26:48.124Z,2.85
2022-09-04T13:30:03.253Z,3.97
2022-09-04T13:33:11.274Z,3.40
2022-09-04T13:36:24.019Z,3.42
2022-09-04T13:39:13.914Z,5.95
2022-09-04T13:41:52.591Z,4.18
2022-09-04T13:44:32.432Z,2.88
2022-09-04T13:47:08.959Z,3.38
2022-09-04T13:49:56.398Z,3.08
2022-09-04T13:52:53.531Z,3.25
2022-09-04T13:55:24.000Z,4.13
2022-09-04T13:57:57.553Z,3.40
2022-09-04T14:00:32.088Z,2.92
2022-09-04T14:03:10.751Z,3.08
2022-09-04T14:05:38.168Z,2.60
2022-09-04T14:08:08.772Z,10.87
2022-09-04T14:10:37.951Z,3.58
2022-09-04T14:13:12.920Z,7.13
2022-09-04T14:16:06.677Z,8.13
2022-09-04T14:19:15.601Z,3.10
2022-09-04T14:22:16.680Z,3.80
2022-09-04T14:25:06.502Z,3.88
2022-09-04T14:27:52.218Z,3.05
2022-09-04T14:30:22.289Z,2.70
2022-09-04T14:32:57.834Z,7.22
2022-09-04T14:35:49.354Z,2.40
2022-09-04T14:38:35.302Z,4.20
2022-09-04T14:41:26.078Z,4.68
2022-09-04T14:44:26.952Z,3.53
2022-09-04T14:47:09.634Z,3.05
2022-09-04T14:49:51.953Z,2.10
2022-09-04T14:52:27.267Z,5.32
2022-09-04T14:54:57.983Z,4.10
2022-09-04T14:57:32.421Z,16.17
2022-09-04T15:00:01.868Z,2.92
2022-09-04T15:02:39.780Z,4.43
2022-09-04T15:05:15.523Z,3.28
2022-09-04T15:07:41.948Z,3.47
2022-09-04T15:10:50.336Z,5.22
2022-09-04T15:13:29.130Z,2.65
2022-09-04T15:16:10.862Z,2.58
2022-09-04T15:18:55.886Z,2.63
2022-09-04T15:21:31.226Z,2.40
2022-09-04T15:24:16.137Z,4.20
2022-09-04T15:26:46.783Z,2.85
2022-09-04T15:29:40.668Z,5.32
2022-09-04T15:32:14.008Z,2.75
2022-09-04T15:34:41.398Z,2.53
2022-09-04T15:37:11.085Z,4.15
2022-09-04T15:40:12.221Z,2.92
2022-09-04T15:42:44.370Z,3.22
2022-09-04T15:45:25.799Z,2.72
2022-09-04T15:48:21.201Z,2.58
2022-09-04T15:51:21.409Z,3.03
2022-09-04T15:54:13.216Z,3.75
2022-09-04T15:56:45.391Z,3.03
2022-09-04T15:59:21.516Z,3.50
2022-09-04T16:02:20.135Z,2.08
2022-09-04T16:05:19.477Z,4.50
2022-09-04T16:08:09.953Z,3.95
2022-09-04T16:10:46.651Z,2.88
2022-09-04T16:13:25.247Z,3.20
2022-09-04T16:16:19.566Z,2.40
2022-09-04T16:19:00.055Z,2.90
2022-09-04T16:21:44.476Z,4.40
2022-09-04T16:24:25.672Z,3.72
2022-09-04T16:26:54.598Z,2.47
2022-09-04T16:29:36.404Z,2.40
2022-09-04T16:32:07.075Z,1.88
2022-09-04T16:34:43.342Z,3.85
2022-09-04T16:37:38.725Z,4.15
2022-09-04T16:40:24.749Z,2.50
2022-09-04T16:42:59.991Z,2.22
2022-09-04T16:45:48.533Z,2.60
2022-09-04T16:48:34.849Z,3.00
2022-09-04T16:51:39.118Z,5.82
2022-09-04T16:54:16.940Z,2.75
2022-09-04T16:56:50.691Z,9.18
2022-09-04T16:59:41.929Z,8.57
2022-09-04T17:02:30.760Z,2.45
2022-09-04T17:05:10.465Z,5.70
2022-09-04T17:07:44.166Z,5.10
2022-09-04T17:10:36.570Z,4.60
2022-09-04T17:13:21.232Z,2.22
2022-09-04T17:16:02.305Z,4.35
2022-09-04T17:18:30.737Z,9.80
2022-09-04T17:28:56.266Z,3.60
2022-09-04T17:29:07.540Z,3.30
2022-09-04T17:29:55.996Z,10.25
2022-09-04T17:36:45.140Z,2.97
2022-09-04T17:40:40.468Z,3.58
2022-09-04T17:40:44.479Z,3.38
2022-09-04T17:41:47.355Z,2.35
2022-09-04T17:44:25.401Z,3.10
2022-09-04T17:47:09.270Z,5.55
2022-09-04T17:49:43.561Z,3.35
2022-09-04T17:52:11.843Z,3.88
2022-09-04T17:54:49.199Z,16.65
2022-09-04T17:57:37.377Z,16.48
2022-09-04T18:00:10.203Z,9.18
2022-09-04T18:02:49.077Z,7.75
2022-09-04T18:05:15.682Z,3.78
2022-09-04T18:08:09.305Z,3.65
2022-09-04T18:10:57.983Z,3.63
2022-09-04T18:13:52.082Z,4.00
2022-09-04T18:16:26.987Z,3.22
2022-09-04T18:18:58.150Z,3.42
2022-09-04T18:21:41.362Z,9.30
2022-09-04T18:24:26.576Z,5.97
2022-09-04T18:27:08.271Z,3.80
2022-09-04T18:32:48.562Z,6.55
2022-09-04T18:37:21.673Z,3.47
2022-09-04T18:39:08.992Z,4.60
2022-09-04T18:47:41.632Z,6.40
2022-09-04T18:50:30.547Z,3.78
2022-09-04T18:50:38.909Z,5.70
2022-09-04T18:51:19.559Z,2.67
2022-09-04T18:53:44.100Z,7.25
2022-09-04T18:56:20.768Z,4.10
2022-09-04T18:58:57.241Z,5.03
2022-09-04T19:01:31.545Z,3.65
2022-09-04T19:04:26.243Z,8.43
2022-09-04T19:07:07.514Z,6.40
2022-09-04T19:10:16.240Z,4.25
2022-09-04T19:12:53.810Z,5.03
2022-09-04T19:15:45.732Z,4.07
2022-09-04T19:18:43.749Z,11.13
2022-09-04T19:21:13.404Z,8.10
2022-09-04T19:24:00.987Z,5.65
2022-09-04T19:26:36.279Z,12.77
2022-09-04T19:29:15.279Z,9.90
2022-09-04T19:31:59.453Z,13.60
2022-09-04T19:34:37.620Z,13.80
2022-09-04T19:38:04.383Z,36.63
2022-09-04T19:45:57.246Z,14.30
2022-09-04T19:46:06.215Z,26.08
2022-09-04T19:46:28.250Z,15.82
2022-09-04T19:51:09.406Z,17.35
2022-09-04T19:53:34.225Z,22.70
2022-09-04T19:55:23.059Z,19.00
2022-09-04T19:58:04.102Z,15.07
2022-09-04T20:00:43.576Z,15.68
2022-09-04T20:03:30.554Z,15.70
2022-09-04T20:06:20.663Z,20.48
2022-09-04T20:09:05.463Z,18.17
2022-09-04T20:11:38.615Z,23.25
2022-09-04T20:14:37.550Z,20.63
2022-09-04T20:17:41.760Z,21.90
2022-09-04T20:20:21.231Z,21.65
2022-09-04T20:23:00.538Z,22.83
2022-09-04T20:25:55.804Z,17.65
2022-09-04T20:28:36.459Z,26.65
2022-09-04T20:31:35.899Z,20.48
2022-09-04T20:34:18.368Z,16.52
2022-09-04T20:36:51.205Z,11.95
2022-09-04T20:39:26.328Z,13.50
2022-09-04T20:42:04.658Z,19.30
2022-09-04T20:44:44.464Z,14.60
2022-09-04T20:52:42.144Z,18.85
2022-09-04T20:52:52.982Z,8.23
2022-09-04T20:53:48.052Z,10.70
2022-09-04T20:58:28.229Z,14.55
2022-09-04T21:03:09.704Z,9.93
2022-09-04T21:03:20.357Z,22.67
2022-09-04T21:06:12.668Z,10.77
2022-09-04T21:08:58.190Z,11.82
2022-09-04T21:11:41.027Z,16.35
2022-09-04T21:14:45.537Z,7.05
2022-09-04T21:17:35.931Z,14.05
2022-09-04T21:20:27.446Z,11.85
2022-09-04T21:23:46.377Z,14.65
2022-09-04T21:26:33.762Z,9.93
2022-09-04T21:29:30.475Z,14.05
2022-09-04T21:32:18.753Z,11.95
2022-09-04T21:37:39.856Z,20.02
2022-09-04T21:40:50.044Z,18.05
2022-09-04T21:43:37.867Z,12.55
2022-09-04T21:46:38.452Z,15.23
2022-09-04T21:49:26.467Z,12.75
2022-09-04T21:52:31.078Z,12.60
2022-09-04T21:57:49.075Z,10.27
2022-09-04T22:02:27.397Z,10.93
2022-09-04T22:02:43.087Z,9.32
2022-09-04T22:04:25.634Z,10.85
2022-09-04T22:08:36.348Z,13.90
2022-09-04T22:13:29.477Z,12.82
2022-09-04T22:13:38.857Z,10.32
2022-09-04T22:16:31.534Z,9.65
2022-09-04T22:19:27.586Z,10.57
2022-09-04T22:22:03.538Z,10.35
2022-09-04T22:24:58.004Z,9.32
2022-09-04T22:27:30.581Z,10.10
2022-09-04T22:30:10.184Z,13.55
2022-09-04T22:33:08.918Z,14.73
2022-09-04T22:36:13.240Z,7.38
2022-09-04T22:39:04.161Z,7.65
2022-09-04T22:42:18.802Z,11.77
2022-09-04T22:45:12.512Z,13.77
2022-09-04T22:48:06.961Z,13.52
2022-09-04T22:50:49.303Z,8.15
2022-09-04T22:53:31.654Z,6.13
2022-09-04T22:56:09.847Z,8.70
2022-09-04T22:59:07.651Z,6.40
2022-09-04T23:02:15.431Z,11.00
2022-09-04T23:04:45.421Z,7.15
2022-09-04T23:13:22.025Z,8.10
2022-09-04T23:13:52.086Z,14.15
2022-09-04T23:14:05.233Z,9.95
2022-09-04T23:16:53.780Z,8.27
2022-09-04T23:25:56.835Z,7.90
2022-09-04T23:26:35.967Z,13.82
2022-09-04T23:26:44.996Z,11.38
2022-09-04T23:29:44.436Z,12.70
2022-09-04T23:32:32.793Z,10.15
2022-09-04T23:38:00.875Z,5.70
2022-09-04T23:40:51.171Z,9.23
2022-09-04T23:43:39.502Z,9.18
2022-09-04T23:48:56.442Z,9.40
2022-09-04T23:51:50.161Z,9.20
2022-09-04T23:54:53.007Z,5.60
2022-09-04T23:57:40.237Z,9.98
